sensor_id;sensor_type;location;lat;lon;timestamp;P1;durP1;ratioP1;P2;durP2;ratioP2
76900;SDS011;65859;43.020;25.096;2023-09-30T00:02:17;13.52;;;6.95;;
76900;SDS011;65859;43.020;25.096;2023-09-30T00:04:43;10.93;;;6.32;;
76900;SDS011;65859;43.020;25.096;2023-09-30T00:07:10;10.55;;;6.30;;
76900;SDS011;65859;43.020;25.096;2023-09-30T00:09:36;9.82;;;6.40;;
76900;SDS011;65859;43.020;25.096;2023-09-30T00:12:02;13.48;;;6.30;;
76900;SDS011;65859;43.020;25.096;2023-09-30T00:14:29;13.05;;;7.20;;
76900;SDS011;65859;43.020;25.096;2023-09-30T00:16:55;14.55;;;7.85;;
76900;SDS011;65859;43.020;25.096;2023-09-30T00:19:23;16.35;;;6.22;;
76900;SDS011;65859;43.020;25.096;2023-09-30T00:21:49;13.18;;;7.13;;
76900;SDS011;65859;43.020;25.096;2023-09-30T00:24:16;9.73;;;7.13;;
76900;SDS011;65859;43.020;25.096;2023-09-30T00:26:42;13.40;;;7.35;;
76900;SDS011;65859;43.020;25.096;2023-09-30T00:29:08;17.67;;;7.40;;
76900;SDS011;65859;43.020;25.096;2023-09-30T00:31:35;11.40;;;6.95;;
76900;SDS011;65859;43.020;25.096;2023-09-30T00:34:01;8.90;;;6.55;;
76900;SDS011;65859;43.020;25.096;2023-09-30T00:36:28;9.68;;;6.90;;
76900;SDS011;65859;43.020;25.096;2023-09-30T00:38:54;10.77;;;6.40;;
76900;SDS011;65859;43.020;25.096;2023-09-30T00:41:21;13.73;;;7.18;;
76900;SDS011;65859;43.020;25.096;2023-09-30T00:43:47;14.90;;;7.82;;
76900;SDS011;65859;43.020;25.096;2023-09-30T00:48:54;13.88;;;7.90;;
76900;SDS011;65859;43.020;25.096;2023-09-30T00:51:23;11.32;;;7.47;;
76900;SDS011;65859;43.020;25.096;2023-09-30T00:53:50;10.77;;;7.40;;
76900;SDS011;65859;43.020;25.096;2023-09-30T00:56:19;11.15;;;6.70;;
76900;SDS011;65859;43.020;25.096;2023-09-30T00:58:48;11.05;;;6.50;;
76900;SDS011;65859;43.020;25.096;2023-09-30T01:01:18;14.13;;;6.53;;
76900;SDS011;65859;43.020;25.096;2023-09-30T01:03:46;12.65;;;7.20;;
76900;SDS011;65859;43.020;25.096;2023-09-30T01:06:12;13.98;;;6.90;;
76900;SDS011;65859;43.020;25.096;2023-09-30T01:08:39;14.38;;;6.95;;
76900;SDS011;65859;43.020;25.096;2023-09-30T01:11:06;9.38;;;6.35;;
76900;SDS011;65859;43.020;25.096;2023-09-30T01:13:34;9.43;;;6.30;;
76900;SDS011;65859;43.020;25.096;2023-09-30T01:16:05;9.73;;;6.85;;
76900;SDS011;65859;43.020;25.096;2023-09-30T01:18:32;10.32;;;6.20;;
76900;SDS011;65859;43.020;25.096;2023-09-30T01:21:01;9.50;;;5.85;;
76900;SDS011;65859;43.020;25.096;2023-09-30T01:23:31;9.13;;;6.97;;
76900;SDS011;65859;43.020;25.096;2023-09-30T01:26:09;14.52;;;7.68;;
76900;SDS011;65859;43.020;25.096;2023-09-30T01:28:37;11.13;;;6.95;;
76900;SDS011;65859;43.020;25.096;2023-09-30T01:31:04;10.15;;;7.07;;
76900;SDS011;65859;43.020;25.096;2023-09-30T01:33:31;13.23;;;8.02;;
76900;SDS011;65859;43.020;25.096;2023-09-30T01:35:58;16.52;;;8.30;;
76900;SDS011;65859;43.020;25.096;2023-09-30T01:38:25;12.80;;;6.95;;
76900;SDS011;65859;43.020;25.096;2023-09-30T01:40:51;11.73;;;8.00;;
76900;SDS011;65859;43.020;25.096;2023-09-30T01:43:19;11.00;;;7.97;;
76900;SDS011;65859;43.020;25.096;2023-09-30T01:45:45;11.85;;;8.10;;
76900;SDS011;65859;43.020;25.096;2023-09-30T01:48:12;11.57;;;8.05;;
76900;SDS011;65859;43.020;25.096;2023-09-30T01:50:39;17.27;;;8.13;;
76900;SDS011;65859;43.020;25.096;2023-09-30T01:53:06;14.93;;;8.60;;
76900;SDS011;65859;43.020;25.096;2023-09-30T01:55:34;13.20;;;7.78;;
76900;SDS011;65859;43.020;25.096;2023-09-30T01:58:03;12.63;;;7.93;;
76900;SDS011;65859;43.020;25.096;2023-09-30T02:00:29;22.27;;;8.07;;
76900;SDS011;65859;43.020;25.096;2023-09-30T02:02:55;13.73;;;7.38;;
76900;SDS011;65859;43.020;25.096;2023-09-30T02:05:23;12.43;;;7.55;;
76900;SDS011;65859;43.020;25.096;2023-09-30T02:07:50;13.18;;;7.65;;
76900;SDS011;65859;43.020;25.096;2023-09-30T02:10:17;11.07;;;7.00;;
76900;SDS011;65859;43.020;25.096;2023-09-30T02:12:44;17.23;;;8.10;;
76900;SDS011;65859;43.020;25.096;2023-09-30T02:15:11;14.10;;;8.05;;
76900;SDS011;65859;43.020;25.096;2023-09-30T02:17:37;11.65;;;8.00;;
76900;SDS011;65859;43.020;25.096;2023-09-30T02:20:04;17.50;;;7.85;;
76900;SDS011;65859;43.020;25.096;2023-09-30T02:22:37;10.68;;;7.38;;
76900;SDS011;65859;43.020;25.096;2023-09-30T02:25:05;17.85;;;7.80;;
76900;SDS011;65859;43.020;25.096;2023-09-30T02:27:33;14.65;;;7.10;;
76900;SDS011;65859;43.020;25.096;2023-09-30T02:30:00;10.38;;;7.63;;
76900;SDS011;65859;43.020;25.096;2023-09-30T02:32:26;14.52;;;8.25;;
76900;SDS011;65859;43.020;25.096;2023-09-30T02:34:52;13.70;;;8.43;;
76900;SDS011;65859;43.020;25.096;2023-09-30T02:37:19;20.55;;;7.78;;
76900;SDS011;65859;43.020;25.096;2023-09-30T02:39:45;14.45;;;7.90;;
76900;SDS011;65859;43.020;25.096;2023-09-30T02:42:12;12.18;;;7.65;;
76900;SDS011;65859;43.020;25.096;2023-09-30T02:44:38;14.50;;;7.47;;
76900;SDS011;65859;43.020;25.096;2023-09-30T02:47:04;13.30;;;8.00;;
76900;SDS011;65859;43.020;25.096;2023-09-30T02:49:32;11.80;;;7.32;;
76900;SDS011;65859;43.020;25.096;2023-09-30T02:51:58;11.23;;;7.50;;
76900;SDS011;65859;43.020;25.096;2023-09-30T02:54:25;13.45;;;8.27;;
76900;SDS011;65859;43.020;25.096;2023-09-30T02:56:52;10.88;;;7.00;;
76900;SDS011;65859;43.020;25.096;2023-09-30T02:59:21;12.90;;;7.57;;
76900;SDS011;65859;43.020;25.096;2023-09-30T03:01:47;16.10;;;8.13;;
76900;SDS011;65859;43.020;25.096;2023-09-30T03:04:14;15.73;;;7.70;;
76900;SDS011;65859;43.020;25.096;2023-09-30T03:06:44;13.25;;;7.80;;
76900;SDS011;65859;43.020;25.096;2023-09-30T03:09:11;15.70;;;8.23;;
76900;SDS011;65859;43.020;25.096;2023-09-30T03:11:40;13.00;;;8.35;;
76900;SDS011;65859;43.020;25.096;2023-09-30T03:14:08;9.55;;;7.47;;
76900;SDS011;65859;43.020;25.096;2023-09-30T03:16:36;17.70;;;8.23;;
76900;SDS011;65859;43.020;25.096;2023-09-30T03:19:03;13.10;;;8.20;;
76900;SDS011;65859;43.020;25.096;2023-09-30T03:21:30;15.65;;;8.32;;
76900;SDS011;65859;43.020;25.096;2023-09-30T03:23:57;10.00;;;7.78;;
76900;SDS011;65859;43.020;25.096;2023-09-30T03:26:23;14.77;;;7.90;;
76900;SDS011;65859;43.020;25.096;2023-09-30T03:28:49;10.07;;;7.38;;
76900;SDS011;65859;43.020;25.096;2023-09-30T03:31:20;9.95;;;7.55;;
76900;SDS011;65859;43.020;25.096;2023-09-30T03:33:48;10.68;;;7.93;;
76900;SDS011;65859;43.020;25.096;2023-09-30T03:36:16;15.32;;;8.23;;
76900;SDS011;65859;43.020;25.096;2023-09-30T03:38:43;14.50;;;7.25;;
76900;SDS011;65859;43.020;25.096;2023-09-30T03:41:10;12.90;;;7.85;;
76900;SDS011;65859;43.020;25.096;2023-09-30T03:43:38;14.88;;;8.20;;
76900;SDS011;65859;43.020;25.096;2023-09-30T03:46:08;10.93;;;7.78;;
76900;SDS011;65859;43.020;25.096;2023-09-30T03:48:34;18.10;;;8.38;;
76900;SDS011;65859;43.020;25.096;2023-09-30T03:51:11;11.60;;;7.85;;
76900;SDS011;65859;43.020;25.096;2023-09-30T03:53:39;14.18;;;7.72;;
76900;SDS011;65859;43.020;25.096;2023-09-30T03:56:06;19.15;;;7.82;;
76900;SDS011;65859;43.020;25.096;2023-09-30T03:58:33;11.20;;;7.60;;
76900;SDS011;65859;43.020;25.096;2023-09-30T04:00:59;12.45;;;8.05;;
76900;SDS011;65859;43.020;25.096;2023-09-30T04:03:27;8.88;;;6.95;;
76900;SDS011;65859;43.020;25.096;2023-09-30T04:05:54;9.52;;;7.78;;
76900;SDS011;65859;43.020;25.096;2023-09-30T04:08:21;9.90;;;7.70;;
76900;SDS011;65859;43.020;25.096;2023-09-30T04:10:47;13.27;;;7.95;;
76900;SDS011;65859;43.020;25.096;2023-09-30T04:13:14;11.40;;;7.65;;
76900;SDS011;65859;43.020;25.096;2023-09-30T04:15:40;17.33;;;7.03;;
76900;SDS011;65859;43.020;25.096;2023-09-30T04:18:06;11.85;;;8.15;;
76900;SDS011;65859;43.020;25.096;2023-09-30T04:20:33;13.38;;;8.43;;
76900;SDS011;65859;43.020;25.096;2023-09-30T04:22:59;18.48;;;8.40;;
76900;SDS011;65859;43.020;25.096;2023-09-30T04:25:27;16.10;;;8.68;;
76900;SDS011;65859;43.020;25.096;2023-09-30T04:27:53;14.23;;;8.38;;
76900;SDS011;65859;43.020;25.096;2023-09-30T04:30:20;13.38;;;8.45;;
76900;SDS011;65859;43.020;25.096;2023-09-30T04:32:47;10.05;;;7.45;;
76900;SDS011;65859;43.020;25.096;2023-09-30T04:35:14;16.88;;;8.52;;
76900;SDS011;65859;43.020;25.096;2023-09-30T04:37:41;15.25;;;8.05;;
76900;SDS011;65859;43.020;25.096;2023-09-30T04:40:08;11.82;;;7.70;;
76900;SDS011;65859;43.020;25.096;2023-09-30T04:42:43;14.45;;;9.50;;
76900;SDS011;65859;43.020;25.096;2023-09-30T04:45:29;20.33;;;9.00;;
76900;SDS011;65859;43.020;25.096;2023-09-30T04:48:02;17.80;;;8.30;;
76900;SDS011;65859;43.020;25.096;2023-09-30T04:50:43;19.75;;;8.43;;
76900;SDS011;65859;43.020;25.096;2023-09-30T04:53:10;14.98;;;8.90;;
76900;SDS011;65859;43.020;25.096;2023-09-30T04:55:38;30.45;;;19.80;;
76900;SDS011;65859;43.020;25.096;2023-09-30T04:58:13;12.25;;;8.88;;
76900;SDS011;65859;43.020;25.096;2023-09-30T05:01:06;11.85;;;8.25;;
76900;SDS011;65859;43.020;25.096;2023-09-30T05:03:45;22.13;;;9.32;;
76900;SDS011;65859;43.020;25.096;2023-09-30T05:06:18;14.68;;;8.15;;
76900;SDS011;65859;43.020;25.096;2023-09-30T05:08:58;15.15;;;9.50;;
76900;SDS011;65859;43.020;25.096;2023-09-30T05:14:04;15.70;;;10.38;;
76900;SDS011;65859;43.020;25.096;2023-09-30T05:16:34;15.82;;;8.20;;
76900;SDS011;65859;43.020;25.096;2023-09-30T05:19:00;12.98;;;8.32;;
76900;SDS011;65859;43.020;25.096;2023-09-30T05:21:27;12.45;;;7.82;;
76900;SDS011;65859;43.020;25.096;2023-09-30T05:23:54;16.95;;;9.70;;
76900;SDS011;65859;43.020;25.096;2023-09-30T05:26:27;16.77;;;10.47;;
76900;SDS011;65859;43.020;25.096;2023-09-30T05:28:56;22.80;;;14.38;;
76900;SDS011;65859;43.020;25.096;2023-09-30T05:31:24;17.90;;;10.80;;
76900;SDS011;65859;43.020;25.096;2023-09-30T05:33:51;22.33;;;12.65;;
76900;SDS011;65859;43.020;25.096;2023-09-30T05:36:19;30.88;;;20.20;;
76900;SDS011;65859;43.020;25.096;2023-09-30T05:38:47;17.38;;;11.13;;
76900;SDS011;65859;43.020;25.096;2023-09-30T05:41:16;13.10;;;8.20;;
76900;SDS011;65859;43.020;25.096;2023-09-30T05:43:48;31.98;;;18.17;;
76900;SDS011;65859;43.020;25.096;2023-09-30T05:46:15;30.73;;;12.40;;
76900;SDS011;65859;43.020;25.096;2023-09-30T05:48:42;26.98;;;14.82;;
76900;SDS011;65859;43.020;25.096;2023-09-30T05:51:11;56.08;;;33.05;;
76900;SDS011;65859;43.020;25.096;2023-09-30T05:53:40;31.83;;;18.33;;
76900;SDS011;65859;43.020;25.096;2023-09-30T05:56:07;26.20;;;14.55;;
76900;SDS011;65859;43.020;25.096;2023-09-30T05:58:36;43.78;;;27.63;;
76900;SDS011;65859;43.020;25.096;2023-09-30T06:01:07;35.45;;;22.40;;
76900;SDS011;65859;43.020;25.096;2023-09-30T06:03:38;113.88;;;73.63;;
76900;SDS011;65859;43.020;25.096;2023-09-30T06:06:18;33.92;;;23.77;;
76900;SDS011;65859;43.020;25.096;2023-09-30T06:08:56;28.08;;;17.40;;
76900;SDS011;65859;43.020;25.096;2023-09-30T06:15:27;17.70;;;11.63;;
76900;SDS011;65859;43.020;25.096;2023-09-30T06:17:38;23.58;;;10.68;;
76900;SDS011;65859;43.020;25.096;2023-09-30T06:20:16;21.25;;;9.50;;
76900;SDS011;65859;43.020;25.096;2023-09-30T06:22:43;14.45;;;8.23;;
76900;SDS011;65859;43.020;25.096;2023-09-30T06:25:11;23.05;;;8.20;;
76900;SDS011;65859;43.020;25.096;2023-09-30T06:27:48;30.27;;;18.50;;
76900;SDS011;65859;43.020;25.096;2023-09-30T06:30:25;36.17;;;23.25;;
76900;SDS011;65859;43.020;25.096;2023-09-30T06:32:59;58.28;;;40.83;;
76900;SDS011;65859;43.020;25.096;2023-09-30T06:35:30;19.75;;;13.32;;
76900;SDS011;65859;43.020;25.096;2023-09-30T06:38:03;18.77;;;12.80;;
76900;SDS011;65859;43.020;25.096;2023-09-30T06:40:37;48.22;;;34.85;;
76900;SDS011;65859;43.020;25.096;2023-09-30T06:46:20;75.78;;;56.05;;
76900;SDS011;65859;43.020;25.096;2023-09-30T06:48:49;40.63;;;26.27;;
76900;SDS011;65859;43.020;25.096;2023-09-30T06:51:22;32.88;;;20.40;;
76900;SDS011;65859;43.020;25.096;2023-09-30T06:53:49;87.93;;;64.35;;
76900;SDS011;65859;43.020;25.096;2023-09-30T06:56:43;35.30;;;22.85;;
76900;SDS011;65859;43.020;25.096;2023-09-30T07:00:04;17.45;;;8.45;;
76900;SDS011;65859;43.020;25.096;2023-09-30T07:02:07;16.80;;;9.98;;
76900;SDS011;65859;43.020;25.096;2023-09-30T07:04:39;14.82;;;10.90;;
76900;SDS011;65859;43.020;25.096;2023-09-30T07:10:19;17.98;;;9.43;;
76900;SDS011;65859;43.020;25.096;2023-09-30T07:13:07;22.10;;;10.10;;
76900;SDS011;65859;43.020;25.096;2023-09-30T07:15:56;19.30;;;13.38;;
76900;SDS011;65859;43.020;25.096;2023-09-30T07:18:25;14.90;;;9.43;;
76900;SDS011;65859;43.020;25.096;2023-09-30T07:21:33;16.85;;;8.85;;
76900;SDS011;65859;43.020;25.096;2023-09-30T07:24:13;16.40;;;11.32;;
76900;SDS011;65859;43.020;25.096;2023-09-30T07:27:32;19.50;;;12.65;;
76900;SDS011;65859;43.020;25.096;2023-09-30T07:29:54;16.88;;;6.70;;
76900;SDS011;65859;43.020;25.096;2023-09-30T07:32:32;32.15;;;14.77;;
76900;SDS011;65859;43.020;25.096;2023-09-30T07:35:03;18.10;;;7.97;;
76900;SDS011;65859;43.020;25.096;2023-09-30T07:37:53;17.90;;;7.28;;
76900;SDS011;65859;43.020;25.096;2023-09-30T07:40:26;20.88;;;7.95;;
76900;SDS011;65859;43.020;25.096;2023-09-30T07:44:03;19.67;;;11.52;;
76900;SDS011;65859;43.020;25.096;2023-09-30T07:47:04;22.15;;;6.75;;
76900;SDS011;65859;43.020;25.096;2023-09-30T08:00:19;15.02;;;9.88;;
76900;SDS011;65859;43.020;25.096;2023-09-30T08:03:28;14.88;;;6.90;;
76900;SDS011;65859;43.020;25.096;2023-09-30T08:06:06;18.58;;;6.45;;
76900;SDS011;65859;43.020;25.096;2023-09-30T08:08:47;17.50;;;6.47;;
76900;SDS011;65859;43.020;25.096;2023-09-30T08:11:44;13.75;;;6.85;;
76900;SDS011;65859;43.020;25.096;2023-09-30T08:18:01;23.40;;;6.90;;
76900;SDS011;65859;43.020;25.096;2023-09-30T08:21:13;13.23;;;5.68;;
76900;SDS011;65859;43.020;25.096;2023-09-30T08:31:27;21.63;;;5.78;;
76900;SDS011;65859;43.020;25.096;2023-09-30T08:33:57;9.18;;;5.43;;
76900;SDS011;65859;43.020;25.096;2023-09-30T08:36:24;13.02;;;6.03;;
76900;SDS011;65859;43.020;25.096;2023-09-30T08:38:50;9.80;;;6.40;;
76900;SDS011;65859;43.020;25.096;2023-09-30T08:41:37;22.70;;;7.75;;
76900;SDS011;65859;43.020;25.096;2023-09-30T08:44:03;21.83;;;7.65;;
76900;SDS011;65859;43.020;25.096;2023-09-30T08:46:31;10.77;;;5.50;;
76900;SDS011;65859;43.020;25.096;2023-09-30T08:49:02;18.23;;;7.10;;
76900;SDS011;65859;43.020;25.096;2023-09-30T08:51:31;20.13;;;7.13;;
76900;SDS011;65859;43.020;25.096;2023-09-30T08:53:58;16.65;;;6.47;;
76900;SDS011;65859;43.020;25.096;2023-09-30T08:56:29;16.05;;;6.35;;
76900;SDS011;65859;43.020;25.096;2023-09-30T08:59:00;15.02;;;6.75;;
76900;SDS011;65859;43.020;25.096;2023-09-30T09:01:28;14.25;;;5.60;;
76900;SDS011;65859;43.020;25.096;2023-09-30T09:03:55;15.57;;;5.90;;
76900;SDS011;65859;43.020;25.096;2023-09-30T09:06:25;8.95;;;5.22;;
76900;SDS011;65859;43.020;25.096;2023-09-30T09:08:52;20.00;;;5.75;;
76900;SDS011;65859;43.020;25.096;2023-09-30T09:11:18;14.80;;;5.47;;
76900;SDS011;65859;43.020;25.096;2023-09-30T09:13:46;10.07;;;4.75;;
76900;SDS011;65859;43.020;25.096;2023-09-30T09:16:15;12.20;;;5.70;;
76900;SDS011;65859;43.020;25.096;2023-09-30T09:18:46;13.52;;;5.38;;
76900;SDS011;65859;43.020;25.096;2023-09-30T09:21:16;10.90;;;5.15;;
76900;SDS011;65859;43.020;25.096;2023-09-30T09:23:48;17.48;;;5.55;;
76900;SDS011;65859;43.020;25.096;2023-09-30T09:28:50;25.08;;;7.97;;
76900;SDS011;65859;43.020;25.096;2023-09-30T09:31:21;10.55;;;5.88;;
76900;SDS011;65859;43.020;25.096;2023-09-30T09:33:52;13.98;;;5.95;;
76900;SDS011;65859;43.020;25.096;2023-09-30T09:36:19;31.30;;;7.97;;
76900;SDS011;65859;43.020;25.096;2023-09-30T09:38:49;10.05;;;5.50;;
76900;SDS011;65859;43.020;25.096;2023-09-30T09:41:19;11.43;;;5.40;;
76900;SDS011;65859;43.020;25.096;2023-09-30T09:43:49;9.77;;;5.18;;
76900;SDS011;65859;43.020;25.096;2023-09-30T09:48:45;18.92;;;5.43;;
76900;SDS011;65859;43.020;25.096;2023-09-30T09:51:13;14.30;;;5.32;;
76900;SDS011;65859;43.020;25.096;2023-09-30T09:53:41;7.82;;;4.82;;
76900;SDS011;65859;43.020;25.096;2023-09-30T09:56:09;11.70;;;5.45;;
76900;SDS011;65859;43.020;25.096;2023-09-30T09:58:36;19.27;;;4.88;;
76900;SDS011;65859;43.020;25.096;2023-09-30T10:01:06;9.80;;;5.03;;
76900;SDS011;65859;43.020;25.096;2023-09-30T10:03:35;14.63;;;6.90;;
76900;SDS011;65859;43.020;25.096;2023-09-30T10:06:03;15.93;;;7.80;;
76900;SDS011;65859;43.020;25.096;2023-09-30T10:08:40;12.05;;;7.28;;
76900;SDS011;65859;43.020;25.096;2023-09-30T10:11:16;11.27;;;7.82;;
76900;SDS011;65859;43.020;25.096;2023-09-30T10:13:53;13.48;;;5.38;;
76900;SDS011;65859;43.020;25.096;2023-09-30T10:24:45;10.13;;;4.63;;
76900;SDS011;65859;43.020;25.096;2023-09-30T10:29:48;10.98;;;4.82;;
76900;SDS011;65859;43.020;25.096;2023-09-30T10:32:21;8.90;;;4.40;;
76900;SDS011;65859;43.020;25.096;2023-09-30T10:34:48;20.42;;;4.60;;
76900;SDS011;65859;43.020;25.096;2023-09-30T10:37:23;10.18;;;4.60;;
76900;SDS011;65859;43.020;25.096;2023-09-30T10:39:57;12.27;;;5.25;;
76900;SDS011;65859;43.020;25.096;2023-09-30T10:48:26;13.50;;;4.95;;
76900;SDS011;65859;43.020;25.096;2023-09-30T10:51:01;19.95;;;5.90;;
76900;SDS011;65859;43.020;25.096;2023-09-30T10:53:42;13.77;;;4.78;;
76900;SDS011;65859;43.020;25.096;2023-09-30T10:56:10;10.73;;;5.20;;
76900;SDS011;65859;43.020;25.096;2023-09-30T11:01:33;11.77;;;4.93;;
76900;SDS011;65859;43.020;25.096;2023-09-30T11:04:01;10.88;;;7.28;;
76900;SDS011;65859;43.020;25.096;2023-09-30T11:06:30;12.40;;;6.22;;
76900;SDS011;65859;43.020;25.096;2023-09-30T11:08:57;11.15;;;4.97;;
76900;SDS011;65859;43.020;25.096;2023-09-30T11:11:47;13.82;;;5.20;;
76900;SDS011;65859;43.020;25.096;2023-09-30T11:14:21;9.70;;;4.28;;
76900;SDS011;65859;43.020;25.096;2023-09-30T11:16:56;9.18;;;4.43;;
76900;SDS011;65859;43.020;25.096;2023-09-30T11:19:24;15.18;;;4.78;;
76900;SDS011;65859;43.020;25.096;2023-09-30T11:21:52;13.18;;;4.55;;
76900;SDS011;65859;43.020;25.096;2023-09-30T11:24:21;8.07;;;4.93;;
76900;SDS011;65859;43.020;25.096;2023-09-30T11:26:48;16.77;;;4.82;;
76900;SDS011;65859;43.020;25.096;2023-09-30T11:29:19;11.27;;;4.70;;
76900;SDS011;65859;43.020;25.096;2023-09-30T11:31:46;11.07;;;4.53;;
76900;SDS011;65859;43.020;25.096;2023-09-30T11:34:15;9.57;;;4.85;;
76900;SDS011;65859;43.020;25.096;2023-09-30T11:36:51;8.80;;;5.05;;
76900;SDS011;65859;43.020;25.096;2023-09-30T11:39:21;8.68;;;4.75;;
76900;SDS011;65859;43.020;25.096;2023-09-30T11:41:49;11.75;;;5.10;;
76900;SDS011;65859;43.020;25.096;2023-09-30T11:44:15;8.15;;;4.63;;
76900;SDS011;65859;43.020;25.096;2023-09-30T11:46:55;13.45;;;4.72;;
76900;SDS011;65859;43.020;25.096;2023-09-30T11:51:51;41.20;;;5.75;;
76900;SDS011;65859;43.020;25.096;2023-09-30T11:54:18;9.65;;;4.70;;
76900;SDS011;65859;43.020;25.096;2023-09-30T11:56:46;11.45;;;4.50;;
76900;SDS011;65859;43.020;25.096;2023-09-30T11:59:12;8.98;;;4.80;;
76900;SDS011;65859;43.020;25.096;2023-09-30T12:01:39;11.55;;;6.82;;
76900;SDS011;65859;43.020;25.096;2023-09-30T12:04:06;26.48;;;16.42;;
76900;SDS011;65859;43.020;25.096;2023-09-30T12:06:34;12.45;;;7.25;;
76900;SDS011;65859;43.020;25.096;2023-09-30T12:09:03;11.90;;;4.70;;
76900;SDS011;65859;43.020;25.096;2023-09-30T12:11:30;17.70;;;5.50;;
76900;SDS011;65859;43.020;25.096;2023-09-30T12:13:56;10.85;;;4.22;;
76900;SDS011;65859;43.020;25.096;2023-09-30T12:16:22;11.00;;;4.40;;
76900;SDS011;65859;43.020;25.096;2023-09-30T12:18:49;7.57;;;4.75;;
76900;SDS011;65859;43.020;25.096;2023-09-30T12:21:15;11.57;;;4.88;;
76900;SDS011;65859;43.020;25.096;2023-09-30T12:23:45;7.75;;;3.97;;
76900;SDS011;65859;43.020;25.096;2023-09-30T12:26:13;8.55;;;4.82;;
76900;SDS011;65859;43.020;25.096;2023-09-30T12:28:41;11.98;;;4.22;;
76900;SDS011;65859;43.020;25.096;2023-09-30T12:31:07;6.90;;;4.07;;
76900;SDS011;65859;43.020;25.096;2023-09-30T12:33:35;14.45;;;5.40;;
76900;SDS011;65859;43.020;25.096;2023-09-30T12:36:02;8.38;;;4.00;;
76900;SDS011;65859;43.020;25.096;2023-09-30T12:38:28;8.32;;;3.80;;
76900;SDS011;65859;43.020;25.096;2023-09-30T12:40:55;10.90;;;4.80;;
76900;SDS011;65859;43.020;25.096;2023-09-30T12:43:21;8.43;;;5.03;;
76900;SDS011;65859;43.020;25.096;2023-09-30T12:45:48;9.23;;;4.55;;
76900;SDS011;65859;43.020;25.096;2023-09-30T12:48:14;9.45;;;5.70;;
76900;SDS011;65859;43.020;25.096;2023-09-30T12:50:42;8.85;;;4.72;;
76900;SDS011;65859;43.020;25.096;2023-09-30T12:53:09;8.02;;;4.32;;
76900;SDS011;65859;43.020;25.096;2023-09-30T12:55:35;8.38;;;4.43;;
76900;SDS011;65859;43.020;25.096;2023-09-30T12:58:01;9.45;;;4.25;;
76900;SDS011;65859;43.020;25.096;2023-09-30T13:00:30;5.43;;;3.45;;
76900;SDS011;65859;43.020;25.096;2023-09-30T13:02:58;8.35;;;4.57;;
76900;SDS011;65859;43.020;25.096;2023-09-30T13:05:28;11.90;;;5.00;;
76900;SDS011;65859;43.020;25.096;2023-09-30T13:07:55;14.18;;;6.80;;
76900;SDS011;65859;43.020;25.096;2023-09-30T13:10:22;14.63;;;8.57;;
76900;SDS011;65859;43.020;25.096;2023-09-30T13:12:49;8.23;;;4.57;;
76900;SDS011;65859;43.020;25.096;2023-09-30T13:15:16;11.95;;;4.50;;
76900;SDS011;65859;43.020;25.096;2023-09-30T13:17:42;6.32;;;3.92;;
76900;SDS011;65859;43.020;25.096;2023-09-30T13:20:09;7.72;;;4.40;;
76900;SDS011;65859;43.020;25.096;2023-09-30T13:22:37;7.93;;;4.00;;
76900;SDS011;65859;43.020;25.096;2023-09-30T13:25:04;9.30;;;4.65;;
76900;SDS011;65859;43.020;25.096;2023-09-30T13:27:33;12.65;;;4.60;;
76900;SDS011;65859;43.020;25.096;2023-09-30T13:29:59;7.78;;;4.63;;
76900;SDS011;65859;43.020;25.096;2023-09-30T13:32:27;7.97;;;4.45;;
76900;SDS011;65859;43.020;25.096;2023-09-30T13:34:54;10.90;;;4.63;;
76900;SDS011;65859;43.020;25.096;2023-09-30T13:37:20;7.05;;;5.22;;
76900;SDS011;65859;43.020;25.096;2023-09-30T13:39:47;11.68;;;4.75;;
76900;SDS011;65859;43.020;25.096;2023-09-30T13:42:15;7.72;;;4.57;;
76900;SDS011;65859;43.020;25.096;2023-09-30T13:44:42;12.23;;;4.90;;
76900;SDS011;65859;43.020;25.096;2023-09-30T13:47:09;9.88;;;4.70;;
76900;SDS011;65859;43.020;25.096;2023-09-30T13:49:35;15.35;;;5.25;;
76900;SDS011;65859;43.020;25.096;2023-09-30T13:52:01;9.32;;;4.20;;
76900;SDS011;65859;43.020;25.096;2023-09-30T13:54:28;10.65;;;5.22;;
76900;SDS011;65859;43.020;25.096;2023-09-30T13:56:54;15.98;;;4.30;;
76900;SDS011;65859;43.020;25.096;2023-09-30T13:59:20;42.00;;;6.63;;
76900;SDS011;65859;43.020;25.096;2023-09-30T14:01:46;12.63;;;4.30;;
76900;SDS011;65859;43.020;25.096;2023-09-30T14:04:14;9.10;;;4.45;;
76900;SDS011;65859;43.020;25.096;2023-09-30T14:06:41;9.77;;;5.32;;
76900;SDS011;65859;43.020;25.096;2023-09-30T14:09:08;16.42;;;4.97;;
76900;SDS011;65859;43.020;25.096;2023-09-30T14:11:40;10.50;;;4.70;;
76900;SDS011;65859;43.020;25.096;2023-09-30T14:14:07;9.05;;;5.20;;
76900;SDS011;65859;43.020;25.096;2023-09-30T14:16:35;5.60;;;3.67;;
76900;SDS011;65859;43.020;25.096;2023-09-30T14:19:02;11.20;;;4.55;;
76900;SDS011;65859;43.020;25.096;2023-09-30T14:21:28;12.43;;;4.85;;
76900;SDS011;65859;43.020;25.096;2023-09-30T14:23:57;7.65;;;4.93;;
76900;SDS011;65859;43.020;25.096;2023-09-30T14:26:23;23.35;;;6.00;;
76900;SDS011;65859;43.020;25.096;2023-09-30T14:28:50;9.25;;;5.38;;
76900;SDS011;65859;43.020;25.096;2023-09-30T14:31:16;13.20;;;5.05;;
76900;SDS011;65859;43.020;25.096;2023-09-30T14:33:42;8.40;;;4.78;;
76900;SDS011;65859;43.020;25.096;2023-09-30T14:36:10;9.68;;;4.78;;
76900;SDS011;65859;43.020;25.096;2023-09-30T14:38:36;12.65;;;5.65;;
76900;SDS011;65859;43.020;25.096;2023-09-30T14:41:06;11.45;;;5.43;;
76900;SDS011;65859;43.020;25.096;2023-09-30T14:43:33;10.02;;;5.72;;
76900;SDS011;65859;43.020;25.096;2023-09-30T14:46:02;11.45;;;5.90;;
76900;SDS011;65859;43.020;25.096;2023-09-30T14:48:29;12.40;;;4.93;;
76900;SDS011;65859;43.020;25.096;2023-09-30T14:50:55;10.18;;;4.60;;
76900;SDS011;65859;43.020;25.096;2023-09-30T14:53:23;10.77;;;4.47;;
76900;SDS011;65859;43.020;25.096;2023-09-30T14:55:49;10.93;;;4.70;;
76900;SDS011;65859;43.020;25.096;2023-09-30T14:58:16;11.18;;;5.38;;
76900;SDS011;65859;43.020;25.096;2023-09-30T15:00:43;14.35;;;5.43;;
76900;SDS011;65859;43.020;25.096;2023-09-30T15:03:09;16.73;;;7.85;;
76900;SDS011;65859;43.020;25.096;2023-09-30T15:05:36;17.80;;;10.13;;
76900;SDS011;65859;43.020;25.096;2023-09-30T15:08:03;11.85;;;5.43;;
76900;SDS011;65859;43.020;25.096;2023-09-30T15:10:30;11.10;;;5.45;;
76900;SDS011;65859;43.020;25.096;2023-09-30T15:12:59;25.95;;;15.60;;
76900;SDS011;65859;43.020;25.096;2023-09-30T15:15:25;21.80;;;8.80;;
76900;SDS011;65859;43.020;25.096;2023-09-30T15:17:51;14.23;;;6.63;;
76900;SDS011;65859;43.020;25.096;2023-09-30T15:20:20;128.48;;;109.90;;
76900;SDS011;65859;43.020;25.096;2023-09-30T15:22:47;119.50;;;100.18;;
76900;SDS011;65859;43.020;25.096;2023-09-30T15:25:13;118.53;;;92.05;;
76900;SDS011;65859;43.020;25.096;2023-09-30T15:27:40;38.20;;;24.75;;
76900;SDS011;65859;43.020;25.096;2023-09-30T15:30:07;25.70;;;22.13;;
76900;SDS011;65859;43.020;25.096;2023-09-30T15:32:35;27.60;;;19.00;;
76900;SDS011;65859;43.020;25.096;2023-09-30T15:35:01;27.50;;;14.90;;
76900;SDS011;65859;43.020;25.096;2023-09-30T15:37:28;16.17;;;8.85;;
76900;SDS011;65859;43.020;25.096;2023-09-30T15:39:55;19.08;;;8.90;;
76900;SDS011;65859;43.020;25.096;2023-09-30T15:42:23;18.88;;;10.45;;